Time;durP1;ratioP1;P1;durP2;ratioP2;P2;SDS_P1;SDS_P2;PMS_P1;PMS_P2;Temp;Humidity;BMP_temperature;BMP_pressure;BME280_temperature;BME280_humidity;BME280_pressure;Samples;Min_cycle;Max_cycle;Signal;HPM_P1;HPM_P2
2021/05/11 00:01:13;;;;;;;2.22;1.90;;;15.10;90.00;;;;;;5072663;28;20020;-81
2021/05/11 00:03:39;;;;;;;4.28;2.10;;;14.90;90.40;;;;;;5071498;28;20174;-81
2021/05/11 00:06:04;;;;;;;4.57;2.10;;;14.90;90.40;;;;;;5072335;28;20423;-81
2021/05/11 00:08:30;;;;;;;6.93;2.20;;;15.00;90.40;;;;;;5079764;28;20017;-81
2021/05/11 00:10:56;;;;;;;3.58;1.92;;;15.00;90.30;;;;;;5071116;28;20017;-81
2021/05/11 00:13:22;;;;;;;5.28;2.65;;;15.10;90.30;;;;;;5072348;28;20097;-81
2021/05/11 00:15:48;;;;;;;5.38;2.40;;;14.90;90.40;;;;;;5082583;28;20480;-81
2021/05/11 00:18:14;;;;;;;4.43;2.83;;;14.90;90.50;;;;;;5070997;28;20028;-81
2021/05/11 00:20:39;;;;;;;8.77;5.05;;;14.90;90.60;;;;;;5072212;28;20364;-81
2021/05/11 00:23:05;;;;;;;4.60;4.05;;;14.60;91.50;;;;;;5079287;28;20031;-82
2021/05/11 00:25:31;;;;;;;5.82;3.40;;;14.60;91.80;;;;;;5070909;28;20028;-81
2021/05/11 00:27:56;;;;;;;4.28;3.13;;;14.70;91.70;;;;;;5070989;28;20024;-81
2021/05/11 00:30:22;;;;;;;4.80;2.97;;;14.70;91.70;;;;;;5070924;28;20028;-81
2021/05/11 00:32:49;;;;;;;4.38;2.95;;;14.70;91.60;;;;;;5069331;28;20016;-81
2021/05/11 00:35:15;;;;;;;6.35;2.85;;;14.80;91.60;;;;;;5072128;28;20099;-81
2021/05/11 00:37:40;;;;;;;3.65;2.72;;;14.80;91.50;;;;;;5070785;28;20107;-81
2021/05/11 00:40:07;;;;;;;4.97;2.72;;;14.80;91.50;;;;;;5070827;28;20476;-81
2021/05/11 00:42:34;;;;;;;6.57;3.60;;;14.80;91.50;;;;;;5071910;28;20020;-81
2021/05/11 00:44:59;;;;;;;4.07;2.65;;;14.80;91.50;;;;;;5070755;28;20387;-81
2021/05/11 00:47:25;;;;;;;5.63;2.67;;;14.90;91.50;;;;;;5071930;28;20025;-81
2021/05/11 00:49:51;;;;;;;6.45;2.80;;;14.90;91.40;;;;;;5070697;28;20027;-81
2021/05/11 00:52:17;;;;;;;6.18;3.45;;;14.90;91.40;;;;;;5070740;28;20483;-81
2021/05/11 00:54:43;;;;;;;5.47;2.78;;;14.80;91.50;;;;;;5071952;28;20112;-81
2021/05/11 00:57:10;;;;;;;6.18;3.33;;;14.80;91.60;;;;;;5070505;28;20472;-81
2021/05/11 00:59:36;;;;;;;6.88;3.17;;;14.80;91.60;;;;;;5073217;28;20017;-81
2021/05/11 01:02:05;;;;;;;5.25;3.10;;;14.90;91.60;;;;;;5076098;28;20041;-81
2021/05/11 01:04:31;;;;;;;7.75;3.53;;;14.90;91.60;;;;;;5075760;28;20096;-81
2021/05/11 01:06:56;;;;;;;5.03;3.20;;;14.90;91.70;;;;;;5075979;28;20055;-81
2021/05/11 01:09:23;;;;;;;7.32;3.72;;;14.90;91.60;;;;;;5075714;28;20075;-81
2021/05/11 01:11:49;;;;;;;4.63;3.25;;;14.90;91.50;;;;;;5073228;28;20111;-81
2021/05/11 01:14:15;;;;;;;5.88;3.03;;;14.90;91.50;;;;;;5074365;28;20103;-81
2021/05/11 01:16:43;;;;;;;5.88;2.97;;;14.90;91.60;;;;;;5074052;28;20165;-81
2021/05/11 01:19:15;;;;;;;5.13;3.13;;;14.80;91.50;;;;;;5075643;28;20111;-81
2021/05/11 01:21:49;;;;;;;5.85;2.88;;;14.80;91.60;;;;;;5075677;28;20013;-81
2021/05/11 01:26:58;;;;;;;5.38;3.42;;;14.80;91.70;;;;;;5075750;28;20024;-81
2021/05/11 01:29:43;;;;;;;6.90;3.05;;;14.80;91.80;;;;;;5074614;28;20036;-81
2021/05/11 01:48:57;;;;;;;8.80;5.40;;;14.60;92.40;;;;;;5052975;28;20028;-82
2021/05/11 01:51:32;;;;;;;7.18;4.07;;;14.60;92.60;;;;;;5071040;28;20037;-81
2021/05/11 02:10:51;;;;;;;10.27;5.63;;;14.40;93.10;;;;;;5012669;28;20029;-81
2021/05/11 02:24:05;;;;;;;12.40;3.80;;;14.30;93.30;;;;;;5074773;28;20027;-81
2021/05/11 02:26:30;;;;;;;6.28;4.47;;;14.30;93.30;;;;;;5074454;28;20107;-81
2021/05/11 02:28:56;;;;;;;8.80;5.90;;;14.30;93.50;;;;;;5074178;28;20099;-81
2021/05/11 02:31:21;;;;;;;9.02;5.57;;;14.30;93.70;;;;;;5073143;28;20024;-82
2021/05/11 02:33:47;;;;;;;5.40;4.30;;;14.30;93.70;;;;;;5072617;28;20139;-81
2021/05/11 02:36:12;;;;;;;8.95;4.30;;;14.30;93.70;;;;;;5081276;28;20483;-81
2021/05/11 02:38:38;;;;;;;4.88;3.92;;;14.30;93.70;;;;;;5072980;28;20031;-81
2021/05/11 02:41:03;;;;;;;5.53;4.07;;;14.30;93.70;;;;;;5072856;28;20028;-81
2021/05/11 02:43:33;;;;;;;6.68;3.97;;;14.20;93.70;;;;;;5074160;28;20016;-81
2021/05/11 02:45:59;;;;;;;4.20;3.30;;;14.30;93.80;;;;;;5072537;28;20024;-81
2021/05/11 02:48:24;;;;;;;3.75;2.97;;;14.30;93.80;;;;;;5073964;28;20099;-81
2021/05/11 02:50:50;;;;;;;13.00;7.13;;;14.20;93.80;;;;;;5073774;28;20421;-81
2021/05/11 02:53:15;;;;;;;8.18;5.13;;;14.10;94.00;;;;;;5072697;28;20027;-81
2021/05/11 02:55:41;;;;;;;7.50;4.85;;;14.10;94.10;;;;;;5081054;28;20483;-81
2021/05/11 02:58:06;;;;;;;5.00;4.38;;;14.10;94.10;;;;;;5073569;28;20056;-81
2021/05/11 03:00:32;;;;;;;6.18;4.03;;;14.10;94.10;;;;;;5083113;28;20498;-81
2021/05/11 03:02:58;;;;;;;4.22;3.83;;;14.10;94.20;;;;;;5072430;28;20483;-81
2021/05/11 03:05:23;;;;;;;5.05;3.50;;;14.10;94.20;;;;;;5080716;28;20373;-81
2021/05/11 03:07:49;;;;;;;5.90;3.65;;;14.10;94.20;;;;;;5081686;28;20219;-81
2021/05/11 03:10:17;;;;;;;5.25;4.07;;;14.10;94.30;;;;;;5073559;28;20571;-81
2021/05/11 03:12:42;;;;;;;4.95;3.47;;;14.10;94.30;;;;;;5072323;28;20380;-81
2021/05/11 03:15:08;;;;;;;6.18;3.95;;;14.10;94.40;;;;;;5073066;28;20028;-81
2021/05/11 03:17:34;;;;;;;4.70;3.88;;;14.10;94.30;;;;;;5072345;28;20025;-81
2021/05/11 03:20:00;;;;;;;6.05;3.80;;;14.10;94.30;;;;;;5071911;28;20081;-81
2021/05/11 03:22:25;;;;;;;6.63;3.58;;;14.10;94.30;;;;;;5082613;28;20020;-81
2021/05/11 03:24:51;;;;;;;5.93;4.10;;;14.10;94.30;;;;;;5072853;28;20020;-81
2021/05/11 03:27:17;;;;;;;4.40;3.58;;;14.10;94.30;;;;;;5073196;28;20521;-81
2021/05/11 03:29:44;;;;;;;4.78;3.60;;;14.10;94.40;;;;;;5071994;28;20020;-81
2021/05/11 03:32:10;;;;;;;6.15;3.63;;;14.10;94.40;;;;;;5071383;28;20033;-81
2021/05/11 03:34:37;;;;;;;8.73;3.60;;;14.10;94.50;;;;;;5071454;28;20044;-81
2021/05/11 03:37:03;;;;;;;6.68;4.15;;;14.10;94.50;;;;;;5068910;28;20029;-81
2021/05/11 03:39:37;;;;;;;6.03;3.80;;;14.10;94.60;;;;;;5073043;28;20029;-81
2021/05/11 03:42:09;;;;;;;4.90;3.08;;;14.20;94.60;;;;;;5073031;28;20013;-81
2021/05/11 03:44:35;;;;;;;4.78;3.15;;;14.10;94.60;;;;;;5071787;28;20430;-81
2021/05/11 03:47:02;;;;;;;4.35;3.38;;;14.10;94.60;;;;;;5072599;28;20027;-81
2021/05/11 03:49:28;;;;;;;5.18;3.35;;;14.10;94.60;;;;;;5081396;28;20021;-81
2021/05/11 03:51:53;;;;;;;6.72;3.45;;;14.10;94.70;;;;;;5072825;28;20024;-81
2021/05/11 03:54:19;;;;;;;4.15;3.28;;;14.10;94.70;;;;;;5080491;28;20028;-81
2021/05/11 03:56:44;;;;;;;7.45;4.78;;;14.10;95.00;;;;;;5072584;28;20034;-81
2021/05/11 03:59:10;;;;;;;6.68;4.38;;;14.00;94.70;;;;;;5072511;28;20090;-81
2021/05/11 04:01:35;;;;;;;7.05;5.18;;;14.00;94.80;;;;;;5071186;28;20012;-81
2021/05/11 04:04:01;;;;;;;8.50;5.15;;;14.00;94.90;;;;;;5072608;28;20070;-81
2021/05/11 04:06:27;;;;;;;6.85;5.55;;;13.90;94.90;;;;;;5068390;28;20024;-81
2021/05/11 04:16:09;;;;;;;8.50;5.18;;;13.80;95.40;;;;;;5072813;28;20029;-81
2021/05/11 04:17:02;;;;;;;11.05;5.80;;;13.60;95.60;;;;;;5069909;28;20075;-81
2021/05/11 04:19:27;;;;;;;8.43;5.25;;;13.60;96.00;;;;;;5072322;28;20028;-81
2021/05/11 04:21:53;;;;;;;6.65;5.03;;;13.60;96.10;;;;;;5071079;28;20024;-81
2021/05/11 04:24:22;;;;;;;4.90;3.90;;;13.60;96.00;;;;;;5072255;28;20024;-81
2021/05/11 04:26:48;;;;;;;4.55;3.72;;;13.70;96.20;;;;;;5072222;28;20008;-81
2021/05/11 04:29:13;;;;;;;4.75;3.30;;;13.80;95.80;;;;;;5069449;28;20099;-81
2021/05/11 04:31:39;;;;;;;5.72;3.20;;;13.80;95.60;;;;;;5072176;28;20387;-81
2021/05/11 04:34:04;;;;;;;5.70;4.25;;;13.90;95.50;;;;;;5070480;28;20051;-81
2021/05/11 04:36:30;;;;;;;5.03;3.45;;;13.80;95.40;;;;;;5072587;28;20039;-82
2021/05/11 04:38:56;;;;;;;6.82;3.47;;;13.80;95.30;;;;;;5071564;28;20027;-79
2021/05/11 04:41:22;;;;;;;6.45;3.70;;;13.90;95.30;;;;;;5072934;28;20021;-78
2021/05/11 04:43:48;;;;;;;4.43;2.92;;;13.90;95.20;;;;;;5072726;28;20063;-78
2021/05/11 04:48:47;;;;;;;4.32;3.53;;;13.90;95.00;;;;;;5072368;28;20024;-78
2021/05/11 04:51:14;;;;;;;7.10;3.42;;;13.90;95.00;;;;;;5072374;28;20081;-78
2021/05/11 04:53:40;;;;;;;5.80;3.70;;;13.90;95.00;;;;;;5071396;28;20115;-79
2021/05/11 04:56:05;;;;;;;6.38;3.42;;;14.00;94.90;;;;;;5071417;28;20063;-79
2021/05/11 04:58:31;;;;;;;5.25;2.85;;;14.00;94.90;;;;;;5076990;28;20021;-78
2021/05/11 05:01:02;;;;;;;4.40;3.25;;;14.00;94.80;;;;;;5066916;28;20040;-78
2021/05/11 05:03:37;;;;;;;4.88;3.10;;;14.00;94.70;;;;;;5086596;28;20430;-79
2021/05/11 05:06:03;;;;;;;5.40;3.15;;;14.00;94.60;;;;;;5071081;28;20074;-79
2021/05/11 05:08:29;;;;;;;5.63;3.85;;;14.00;94.60;;;;;;5071758;28;20028;-79
2021/05/11 05:10:54;;;;;;;5.22;3.80;;;14.00;94.60;;;;;;5072683;28;20082;-78
2021/05/11 05:13:21;;;;;;;6.78;3.92;;;14.00;94.70;;;;;;5087913;28;20072;-79
2021/05/11 05:15:50;;;;;;;7.88;4.15;;;14.00;94.80;;;;;;5072084;28;20021;-79
2021/05/11 05:18:16;;;;;;;;;;;14.00;94.80;;;;;;5072694;28;20029;-79
2021/05/11 05:20:42;;;;;;;9.82;4.00;;;13.90;94.90;;;;;;5071481;28;19904;-82
2021/05/11 05:23:07;;;;;;;7.82;4.35;;;13.80;95.30;;;;;;5062524;28;20023;-80
2021/05/11 05:25:33;;;;;;;8.10;3.70;;;13.80;95.50;;;;;;5067897;28;20388;-80
2021/05/11 05:28:05;;;;;;;6.68;2.90;;;13.90;95.60;;;;;;5052018;28;20028;-81
2021/05/11 05:30:30;;;;;;;5.38;3.72;;;13.90;95.50;;;;;;5070129;28;20020;-80
2021/05/11 05:33:02;;;;;;;8.63;3.60;;;14.00;95.40;;;;;;5072067;28;20126;-80
2021/05/11 05:35:29;;;;;;;6.88;3.95;;;14.00;95.40;;;;;;5071246;28;20361;-80
2021/05/11 05:37:54;;;;;;;5.90;3.20;;;14.00;95.70;;;;;;5071354;28;20480;-80
2021/05/11 05:40:21;;;;;;;5.80;2.88;;;14.10;95.40;;;;;;5072616;28;20028;-79
2021/05/11 05:42:47;;;;;;;6.63;3.60;;;14.10;95.40;;;;;;5071873;28;20020;-80
2021/05/11 05:45:13;;;;;;;5.20;3.50;;;14.20;95.30;;;;;;5071064;28;20029;-79
2021/05/11 05:47:51;;;;;;;5.18;3.40;;;14.20;95.20;;;;;;5075253;28;20100;-79
2021/05/11 05:50:19;;;;;;;3.83;2.67;;;14.40;95.20;;;;;;5075643;28;20029;-79
2021/05/11 05:52:45;;;;;;;4.53;3.10;;;14.40;95.20;;;;;;5076095;28;20543;-79
2021/05/11 05:55:12;;;;;;;8.88;4.07;;;14.50;95.20;;;;;;5091572;28;20060;-79
2021/05/11 05:57:38;;;;;;;8.52;5.22;;;14.50;95.20;;;;;;5074681;28;20036;-79
2021/05/11 06:00:04;;;;;;;8.40;5.05;;;14.50;95.20;;;;;;5075838;28;20024;-80
2021/05/11 06:02:29;;;;;;;7.78;4.75;;;14.50;95.20;;;;;;5091463;28;20050;-80
2021/05/11 06:04:55;;;;;;;8.15;4.60;;;14.50;95.40;;;;;;5091382;28;20115;-80
2021/05/11 06:07:21;;;;;;;8.55;5.55;;;14.50;95.50;;;;;;5075677;28;20077;-86
2021/05/11 06:09:47;;;;;;;9.15;5.60;;;14.50;95.20;;;;;;5075276;28;20028;-81
2021/05/11 06:12:19;;;;;;;7.45;5.03;;;14.50;95.10;;;;;;5074014;28;20035;-81
2021/05/11 06:15:02;;;;;;;8.48;5.45;;;14.50;95.30;;;;;;5075055;28;20353;-81
2021/05/11 06:17:28;;;;;;;8.43;5.30;;;14.50;95.50;;;;;;5072461;28;20502;-79
2021/05/11 06:19:55;;;;;;;7.70;4.72;;;14.50;95.80;;;;;;5073246;28;20021;-79
2021/05/11 06:22:21;;;;;;;11.30;5.05;;;14.60;95.60;;;;;;5073108;28;20416;-79
2021/05/11 06:24:47;;;;;;;7.45;4.75;;;14.70;95.90;;;;;;5074806;28;20447;-79
2021/05/11 06:27:13;;;;;;;7.78;4.88;;;14.70;95.60;;;;;;5074924;28;20546;-79
2021/05/11 06:29:43;;;;;;;8.45;4.43;;;14.80;95.50;;;;;;5074929;28;20020;-78
2021/05/11 06:32:10;;;;;;;12.07;6.13;;;14.90;95.50;;;;;;5074899;28;20052;-79
2021/05/11 06:34:37;;;;;;;8.27;4.80;;;14.90;95.40;;;;;;5074561;28;20499;-79
2021/05/11 06:37:03;;;;;;;8.65;5.57;;;15.00;95.40;;;;;;5074592;28;20078;-79
2021/05/11 06:39:29;;;;;;;9.57;5.80;;;15.00;95.20;;;;;;5074646;28;20021;-79
2021/05/11 06:41:58;;;;;;;7.97;4.57;;;15.00;94.60;;;;;;5073332;28;20012;-79
2021/05/11 06:49:59;;;;;;;10.77;5.93;;;15.00;94.60;;;;;;5074932;28;20078;-79
2021/05/11 06:55:08;;;;;;;7.40;5.38;;;15.00;94.30;;;;;;5074599;28;20036;-79
2021/05/11 06:57:34;;;;;;;7.35;5.07;;;15.00;94.20;;;;;;5090159;28;20025;-79
2021/05/11 07:00:00;;;;;;;8.80;4.70;;;15.00;94.30;;;;;;5074496;28;20028;-81
2021/05/11 07:02:28;;;;;;;9.02;5.35;;;15.10;94.20;;;;;;5069126;28;20097;-80
2021/05/11 07:04:53;;;;;;;8.63;4.25;;;15.20;94.10;;;;;;5070669;28;20480;-81
2021/05/11 07:07:20;;;;;;;8.57;4.40;;;15.30;93.90;;;;;;5073108;28;20039;-78
2021/05/11 07:10:04;;;;;;;8.50;3.95;;;15.40;93.80;;;;;;5072570;28;20522;-79
2021/05/11 07:15:14;;;;;;;9.30;5.28;;;15.70;93.30;;;;;;5074228;28;20081;-79
2021/05/11 07:17:39;;;;;;;7.68;5.18;;;15.70;92.80;;;;;;5071530;28;20029;-79
2021/05/11 07:20:05;;;;;;;7.50;4.50;;;15.80;92.80;;;;;;5071480;28;20086;-79
2021/05/11 07:22:31;;;;;;;8.00;3.90;;;15.90;92.80;;;;;;5074223;28;20025;-79
2021/05/11 07:24:58;;;;;;;9.98;4.25;;;16.00;92.70;;;;;;5074305;28;20029;-79
2021/05/11 07:30:12;;;;;;;8.40;3.95;;;16.20;92.10;;;;;;5073345;28;20029;-79
2021/05/11 07:32:39;;;;;;;6.20;3.80;;;16.20;91.70;;;;;;5072701;28;20556;-79
2021/05/11 07:35:05;;;;;;;6.22;3.85;;;16.30;91.50;;;;;;5073475;28;20040;-79
2021/05/11 07:37:31;;;;;;;9.88;4.30;;;16.30;91.50;;;;;;5073387;28;20025;-79
2021/05/11 07:39:57;;;;;;;6.15;2.97;;;16.30;91.20;;;;;;5072559;28;20042;-79
2021/05/11 07:42:22;;;;;;;6.30;3.55;;;16.30;91.30;;;;;;5073878;28;20024;-83
2021/05/11 07:44:51;;;;;;;6.78;3.90;;;16.30;91.30;;;;;;5073831;28;20074;-79
2021/05/11 08:04:28;;;;;;;7.60;3.47;;;16.50;89.90;;;;;;5073498;28;20040;-79
2021/05/11 08:28:51;;;;;;;6.35;3.40;;;17.10;88.90;;;;;;5053156;28;20067;-79
2021/05/11 08:31:16;;;;;;;5.63;2.80;;;17.00;86.70;;;;;;5068101;28;20048;-79
2021/05/11 08:33:42;;;;;;;5.18;2.58;;;16.90;86.70;;;;;;5052896;28;20167;-79
2021/05/11 08:36:07;;;;;;;5.82;3.35;;;16.90;87.10;;;;;;5052725;28;20074;-79
2021/05/11 08:38:33;;;;;;;6.75;3.40;;;17.00;87.80;;;;;;5068181;28;20476;-79
2021/05/11 08:40:58;;;;;;;5.50;2.35;;;16.90;87.00;;;;;;5052946;28;20100;-79
2021/05/11 08:43:29;;;;;;;6.97;2.90;;;16.90;87.40;;;;;;5068067;28;20021;-79
2021/05/11 08:46:01;;;;;;;7.22;3.10;;;17.00;87.50;;;;;;5052705;28;20488;-79
2021/05/11 08:48:27;;;;;;;6.63;3.35;;;17.10;87.30;;;;;;5067993;28;20025;-79
2021/05/11 09:26:39;;;;;;;4.82;2.30;;;17.90;85.20;;;;;;5073401;28;20021;-79
2021/05/11 09:29:12;;;;;;;4.97;1.88;;;17.90;85.10;;;;;;5075473;28;20027;-79
2021/05/11 09:31:56;;;;;;;4.50;2.20;;;18.00;85.30;;;;;;5073541;28;20115;-79
2021/05/11 09:34:31;;;;;;;6.13;2.85;;;17.90;85.20;;;;;;5074428;28;20115;-82
2021/05/11 09:56:50;;;;;;;7.32;2.88;;;17.40;84.90;;;;;;5074587;28;20403;-79
2021/05/11 09:59:39;;;;;;;5.83;2.67;;;17.40;85.10;;;;;;5072404;28;20108;-79
2021/05/11 10:46:53;;;;;;;8.93;4.63;;;17.70;82.10;;;;;;5074207;28;20017;-80
2021/05/11 10:49:28;;;;;;;8.93;3.63;;;17.90;82.00;;;;;;5089643;28;20025;-78
2021/05/11 10:52:14;;;;;;;7.95;4.03;;;18.20;82.10;;;;;;5073353;28;20031;-79
2021/05/11 10:54:44;;;;;;;7.63;4.32;;;18.50;82.10;;;;;;5073824;28;20021;-78
2021/05/11 10:57:26;;;;;;;7.75;3.72;;;18.50;80.60;;;;;;5074693;28;20106;-79
2021/05/11 11:00:12;;;;;;;;;;;;;;;;;;;;;
2021/05/11 11:04:53;;;;;;;8.00;4.15;;;18.40;80.50;;;;;;5074880;28;20027;-79
2021/05/11 11:07:31;;;;;;;9.27;4.47;;;18.40;80.50;;;;;;5073207;28;20020;-79
2021/05/11 11:09:59;;;;;;;5.93;3.63;;;18.40;80.70;;;;;;5073130;28;20479;-79
2021/05/11 11:12:34;;;;;;;9.53;4.83;;;18.30;80.80;;;;;;5072875;28;20052;-80
2021/05/11 11:15:04;;;;;;;7.97;4.55;;;18.10;80.80;;;;;;5072542;28;20044;-80
2021/05/11 11:17:29;;;;;;;8.27;4.15;;;17.90;81.30;;;;;;5072864;28;20417;-79
2021/05/11 11:20:00;;;;;;;5.75;4.20;;;17.80;81.80;;;;;;5074049;28;20029;-79
2021/05/11 11:25:14;;;;;;;5.95;3.28;;;17.80;82.50;;;;;;5073599;28;20102;-76
2021/05/11 11:27:39;;;;;;;3.17;1.90;;;17.80;82.50;;;;;;5088679;28;20115;-75
2021/05/11 11:30:13;;;;;;;5.53;2.85;;;17.90;82.60;;;;;;5073401;28;20096;-75
2021/05/11 11:32:39;;;;;;;9.95;5.00;;;17.90;82.40;;;;;;5071557;28;20070;-75
2021/05/11 11:35:07;;;;;;;7.60;4.45;;;17.80;82.90;;;;;;5072341;28;20037;-75
2021/05/11 11:37:33;;;;;;;9.20;4.72;;;17.70;82.90;;;;;;5070832;28;20024;-75
2021/05/11 11:40:03;;;;;;;9.43;5.35;;;17.60;83.20;;;;;;5072577;28;20013;-75
2021/05/11 11:42:31;;;;;;;6.82;4.07;;;17.60;83.60;;;;;;5071837;28;21557;-75
2021/05/11 11:45:01;;;;;;;5.07;3.42;;;17.60;84.10;;;;;;5068898;28;20415;-75
2021/05/11 11:47:28;;;;;;;4.65;3.67;;;17.60;84.10;;;;;;5073282;28;20012;-75
2021/05/11 11:50:01;;;;;;;4.07;2.63;;;17.60;84.10;;;;;;5071650;28;20044;-75
2021/05/11 11:52:32;;;;;;;6.93;4.35;;;17.70;84.30;;;;;;5071876;28;20078;-75
2021/05/11 12:00:14;;;;;;;9.32;5.68;;;17.60;85.50;;;;;;5071729;28;20040;-75
2021/05/11 12:03:06;;;;;;;10.55;5.90;;;17.60;86.20;;;;;;5071684;28;20025;-75
2021/05/11 12:05:37;;;;;;;11.13;6.43;;;17.70;86.30;;;;;;5070880;28;20070;-76
2021/05/11 12:08:21;;;;;;;10.02;6.57;;;17.60;86.60;;;;;;5070946;28;20078;-76
2021/05/11 12:10:52;;;;;;;9.02;5.90;;;17.60;86.60;;;;;;5087600;28;20055;-76
2021/05/11 12:13:26;;;;;;;10.30;5.47;;;17.70;87.00;;;;;;5068305;28;20024;-76
2021/05/11 12:16:17;;;;;;;9.43;6.00;;;17.60;86.40;;;;;;5071534;28;20025;-76
2021/05/11 12:19:09;;;;;;;11.57;6.07;;;17.50;85.80;;;;;;5079110;28;20066;-76
2021/05/11 12:22:00;;;;;;;5.72;4.07;;;17.50;86.50;;;;;;5071190;28;20353;-76
2021/05/11 12:24:44;;;;;;;9.95;4.85;;;17.40;86.10;;;;;;5070108;28;20013;-76
2021/05/11 12:27:27;;;;;;;5.13;3.90;;;17.40;86.10;;;;;;5071781;28;20054;-76
2021/05/11 12:30:04;;;;;;;6.47;3.58;;;17.40;86.10;;;;;;5071620;28;20460;-76
2021/05/11 12:32:30;;;;;;;6.78;4.15;;;17.40;85.80;;;;;;5070877;28;20020;-76
2021/05/11 12:35:10;;;;;;;5.80;3.42;;;17.40;85.90;;;;;;5071143;28;20044;-77
2021/05/11 12:37:57;;;;;;;6.47;3.33;;;17.40;85.90;;;;;;5070252;28;20115;-76
2021/05/11 12:40:32;;;;;;;6.13;2.83;;;17.50;85.20;;;;;;5070813;28;20051;-77
2021/05/11 12:43:01;;;;;;;4.85;2.35;;;17.50;83.50;;;;;;5072514;28;20074;-76
2021/05/11 12:45:29;;;;;;;6.00;2.50;;;17.50;83.60;;;;;;5070053;28;20008;-76
2021/05/11 12:48:02;;;;;;;4.47;2.22;;;17.60;83.60;;;;;;5072408;28;20025;-75
2021/05/11 12:50:37;;;;;;;5.35;3.05;;;17.70;83.40;;;;;;5072937;28;20107;-76
2021/05/11 12:56:16;;;;;;;4.75;2.33;;;17.70;82.70;;;;;;5074409;28;20024;-76
2021/05/11 13:01:29;;;;;;;6.22;2.75;;;17.80;83.20;;;;;;5076307;28;20017;-76
2021/05/11 13:21:17;;;;;;;4.25;2.53;;;18.10;83.10;;;;;;5056178;28;20056;-77
2021/05/11 13:26:00;;;;;;;5.82;3.05;;;18.00;83.00;;;;;;5056418;28;20070;-76
2021/05/11 13:28:38;;;;;;;5.35;2.47;;;18.00;83.00;;;;;;5071709;28;20032;-76
2021/05/11 13:33:33;;;;;;;5.40;3.00;;;18.00;83.20;;;;;;5056373;28;20526;-77
2021/05/11 13:35:58;;;;;;;4.25;2.47;;;18.00;82.70;;;;;;5056304;28;20088;-77
2021/05/11 13:38:24;;;;;;;3.92;2.20;;;18.10;82.70;;;;;;5071681;28;20029;-77
2021/05/11 13:40:51;;;;;;;3.33;2.00;;;18.10;82.70;;;;;;5056187;28;20031;-77
2021/05/11 13:43:17;;;;;;;4.57;1.88;;;18.20;82.70;;;;;;5056308;28;20021;-77
2021/05/11 13:45:42;;;;;;;5.10;2.63;;;18.20;82.80;;;;;;5071323;28;20021;-76
2021/05/11 13:53:20;;;;;;;7.22;2.13;;;18.10;82.60;;;;;;5056093;28;20028;-76
2021/05/11 14:03:56;;;;;;;5.65;2.67;;;18.20;82.20;;;;;;5055801;28;20092;-76
2021/05/11 14:06:21;;;;;;;5.50;3.08;;;18.20;82.10;;;;;;5055479;28;20558;-76
2021/05/11 14:08:47;;;;;;;3.67;2.53;;;18.20;82.10;;;;;;5055074;28;20061;-76
2021/05/11 14:11:14;;;;;;;6.40;3.33;;;18.30;82.20;;;;;;5071036;28;20464;-76
2021/05/11 14:13:39;;;;;;;8.48;3.42;;;18.40;82.40;;;;;;5055774;28;20025;-76
2021/05/11 14:16:05;;;;;;;6.60;4.50;;;18.40;82.80;;;;;;5073893;28;20024;-76
2021/05/11 14:18:31;;;;;;;5.28;2.88;;;18.40;82.80;;;;;;5075581;28;20061;-76
2021/05/11 14:20:57;;;;;;;6.70;3.78;;;18.30;82.80;;;;;;5074128;28;20031;-76
2021/05/11 14:23:23;;;;;;;7.38;3.60;;;18.30;82.80;;;;;;5074239;28;20021;-76
2021/05/11 14:25:48;;;;;;;9.02;3.70;;;18.30;82.80;;;;;;5074200;28;20020;-76
2021/05/11 14:28:14;;;;;;;7.78;3.03;;;18.30;82.90;;;;;;5075321;28;20039;-76
2021/05/11 14:30:39;;;;;;;5.18;2.67;;;18.30;82.60;;;;;;5075028;28;20471;-76
2021/05/11 14:33:05;;;;;;;6.80;2.72;;;18.30;82.50;;;;;;5073745;28;20048;-76
2021/05/11 14:35:31;;;;;;;8.18;4.47;;;18.20;82.50;;;;;;5075340;28;20032;-76
2021/05/11 14:37:57;;;;;;;8.23;4.75;;;18.20;82.60;;;;;;5075116;28;20103;-76
2021/05/11 14:40:22;;;;;;;10.40;4.80;;;18.10;82.60;;;;;;5074406;28;20379;-76
2021/05/11 14:42:48;;;;;;;9.07;3.65;;;18.10;82.70;;;;;;5074556;28;20016;-77
2021/05/11 14:45:14;;;;;;;5.53;3.50;;;18.10;83.00;;;;;;5074014;28;20392;-77
2021/05/11 14:47:46;;;;;;;5.85;4.35;;;18.00;83.20;;;;;;5074410;28;20100;-77
2021/05/11 14:50:19;;;;;;;9.35;4.38;;;18.00;83.40;;;;;;5074426;28;20079;-76
2021/05/11 14:52:45;;;;;;;5.85;3.38;;;18.00;83.60;;;;;;5087289;28;20070;-76
2021/05/11 14:55:14;;;;;;;6.50;3.50;;;18.00;83.80;;;;;;5072948;28;20028;-76
2021/05/11 14:57:40;;;;;;;7.18;4.35;;;18.00;83.70;;;;;;5071615;28;20514;-77
2021/05/11 15:00:07;;;;;;;5.45;4.43;;;18.00;83.70;;;;;;5073588;28;20017;-77
2021/05/11 15:02:34;;;;;;;6.72;4.63;;;18.00;84.10;;;;;;5073562;28;20103;-77
2021/05/11 15:05:00;;;;;;;6.25;4.25;;;17.90;84.60;;;;;;5073777;28;20009;-76
2021/05/11 15:07:26;;;;;;;5.88;3.83;;;17.80;84.90;;;;;;5090060;28;20024;-76
2021/05/11 15:09:51;;;;;;;4.88;3.35;;;17.90;84.90;;;;;;5073786;28;20031;-77
2021/05/11 15:12:17;;;;;;;5.85;4.07;;;17.90;85.10;;;;;;5073735;28;20025;-77
2021/05/11 15:14:42;;;;;;;4.30;3.25;;;17.90;85.40;;;;;;5072376;28;20103;-77
2021/05/11 15:19:58;;;;;;;6.32;4.13;;;18.00;85.70;;;;;;5062847;28;20607;-78
2021/05/11 15:22:25;;;;;;;8.02;3.97;;;17.90;86.00;;;;;;5074201;28;20430;-78
2021/05/11 15:24:51;;;;;;;6.13;3.80;;;17.90;86.30;;;;;;5072285;28;20024;-77
2021/05/11 15:27:17;;;;;;;6.70;3.72;;;17.80;86.40;;;;;;5073662;28;20028;-78
2021/05/11 15:29:43;;;;;;;5.10;3.28;;;17.80;86.50;;;;;;5072548;28;20028;-78
2021/05/11 15:32:53;;;;;;;7.45;3.65;;;17.80;86.60;;;;;;5071618;28;20036;-77
2021/05/11 15:35:22;;;;;;;9.02;4.20;;;17.90;86.60;;;;;;5072107;28;20100;-77
2021/05/11 15:37:52;;;;;;;5.73;4.40;;;17.80;86.90;;;;;;5073258;28;20024;-78
2021/05/11 15:40:19;;;;;;;4.85;3.15;;;17.80;87.00;;;;;;5073443;28;20021;-77
2021/05/11 15:42:45;;;;;;;5.53;4.18;;;17.90;87.20;;;;;;5071004;28;20016;-77
2021/05/11 15:45:11;;;;;;;6.88;4.05;;;18.00;87.00;;;;;;5071840;28;20021;-77
2021/05/11 15:47:38;;;;;;;5.07;4.50;;;18.00;86.80;;;;;;5071863;28;20035;-75
2021/05/11 15:50:07;;;;;;;5.95;3.92;;;17.80;86.90;;;;;;5072310;28;20032;-75
2021/05/11 15:52:33;;;;;;;7.32;4.05;;;17.80;87.20;;;;;;5088784;28;20025;-75
2021/05/11 15:54:58;;;;;;;6.68;3.88;;;17.80;87.40;;;;;;5073711;28;20029;-75
2021/05/11 15:57:24;;;;;;;5.00;3.40;;;17.70;87.50;;;;;;5073594;28;20032;-76
2021/05/11 15:59:50;;;;;;;5.45;4.03;;;17.70;87.40;;;;;;5072969;28;20093;-75
2021/05/11 16:02:15;;;;;;;6.10;3.85;;;17.70;87.30;;;;;;5088824;28;20447;-75
2021/05/11 16:04:41;;;;;;;7.07;4.07;;;17.70;87.30;;;;;;5071442;28;20017;-76
2021/05/11 16:07:06;;;;;;;6.97;3.58;;;17.60;87.40;;;;;;5072015;28;20083;-79
2021/05/11 16:09:32;;;;;;;4.63;3.10;;;17.60;87.40;;;;;;5073550;28;20100;-76
2021/05/11 16:11:57;;;;;;;6.50;3.13;;;17.60;87.30;;;;;;5072429;28;20052;-76
2021/05/11 16:14:23;;;;;;;5.40;3.42;;;17.50;87.30;;;;;;5072195;28;20055;-82
2021/05/11 16:16:49;;;;;;;3.70;3.30;;;17.50;87.40;;;;;;5071711;28;20108;-76
2021/05/11 16:19:14;;;;;;;4.70;3.13;;;17.50;87.40;;;;;;5072023;28;20095;-77
2021/05/11 16:21:40;;;;;;;4.80;3.10;;;17.60;87.60;;;;;;5072414;28;20490;-76
2021/05/11 16:24:06;;;;;;;6.95;3.90;;;17.50;87.70;;;;;;5071362;28;20043;-79
2021/05/11 16:26:31;;;;;;;5.43;3.67;;;17.50;87.90;;;;;;5073175;28;20039;-76
2021/05/11 16:28:57;;;;;;;4.93;4.05;;;17.50;88.00;;;;;;5072055;28;20107;-76
2021/05/11 16:31:23;;;;;;;4.72;3.53;;;17.60;88.70;;;;;;5088310;28;20038;-76
2021/05/11 16:33:49;;;;;;;4.47;3.50;;;17.60;88.20;;;;;;5072741;28;20060;-80
2021/05/11 16:36:15;;;;;;;5.50;3.22;;;17.60;88.20;;;;;;5071825;28;20035;-80
2021/05/11 16:38:42;;;;;;;5.07;3.63;;;17.50;88.30;;;;;;5073148;28;20033;-82
2021/05/11 16:41:08;;;;;;;5.90;4.35;;;17.50;88.40;;;;;;5082072;28;20085;-79
2021/05/11 16:43:34;;;;;;;5.45;3.75;;;17.50;88.60;;;;;;5091911;28;20020;-77
2021/05/11 16:46:02;;;;;;;5.82;4.05;;;17.50;88.70;;;;;;5072557;28;20025;-76
2021/05/11 16:48:32;;;;;;;4.55;3.17;;;17.50;88.70;;;;;;5071748;28;20067;-76
2021/05/11 16:50:58;;;;;;;;;;;17.50;88.80;;;;;;5073376;28;20031;-76
2021/05/11 16:53:24;;;;;;;5.78;3.25;;;17.50;88.80;;;;;;5071639;28;20356;-76
2021/05/11 16:55:50;;;;;;;5.22;4.60;;;17.50;89.20;;;;;;5073019;28;20079;-76
2021/05/11 16:58:16;;;;;;;7.57;5.10;;;17.50;89.30;;;;;;5071291;28;20051;-76
2021/05/11 17:00:43;;;;;;;7.38;4.78;;;17.50;89.40;;;;;;5059652;28;20475;-76
2021/05/11 17:03:09;;;;;;;6.55;4.93;;;17.40;89.60;;;;;;5071106;28;20009;-76
2021/05/11 17:05:34;;;;;;;7.07;5.30;;;17.40;89.70;;;;;;5056885;28;20017;-76
2021/05/11 17:08:02;;;;;;;9.77;4.85;;;17.40;89.90;;;;;;5071167;28;20024;-76
2021/05/11 17:10:29;;;;;;;5.22;4.72;;;17.40;90.00;;;;;;5070730;28;20162;-76
2021/05/11 17:12:56;;;;;;;7.82;5.93;;;17.40;90.40;;;;;;5063041;28;20039;-76
2021/05/11 17:15:23;;;;;;;7.70;6.20;;;17.40;90.20;;;;;;5064893;28;20372;-76